createdAt,value
2024-03-07T00:00:20.164Z,101565.91
2024-03-07T00:02:50.818Z,101564.94
2024-03-07T00:05:20.613Z,101566.00
2024-03-07T00:07:50.524Z,101559.34
2024-03-07T00:10:18.847Z,101554.38
2024-03-07T00:12:47.131Z,101562.81
2024-03-07T00:15:16.517Z,101555.47
2024-03-07T00:17:45.064Z,101554.53
2024-03-07T00:20:17.144Z,101561.66
2024-03-07T00:22:45.835Z,101554.09
2024-03-07T00:25:15.818Z,101552.84
2024-03-07T00:27:46.336Z,101548.09
2024-03-07T00:30:19.651Z,101553.19
2024-03-07T00:32:48.714Z,101558.22
2024-03-07T00:35:16.944Z,101559.75
2024-03-07T00:37:45.591Z,101552.88
2024-03-07T00:40:15.284Z,101561.13
2024-03-07T00:42:43.479Z,101558.47
2024-03-07T00:45:11.517Z,101558.28
2024-03-07T00:47:39.794Z,101565.03
2024-03-07T00:50:09.696Z,101563.09
2024-03-07T00:52:38.013Z,101563.75
2024-03-07T00:55:09.533Z,101567.88
2024-03-07T00:57:39.391Z,101554.59
2024-03-07T01:00:12.952Z,101557.66
2024-03-07T01:02:44.480Z,101552.25
2024-03-07T01:05:14.581Z,101559.63
2024-03-07T01:07:43.971Z,101554.94
2024-03-07T01:10:13.022Z,101558.00
2024-03-07T01:12:44.420Z,101561.94
2024-03-07T01:15:13.024Z,101555.38
2024-03-07T01:17:41.264Z,101560.84
2024-03-07T01:20:10.585Z,101551.03
2024-03-07T01:22:38.483Z,101553.72
2024-03-07T01:25:07.587Z,101552.31
2024-03-07T01:27:36.077Z,101545.66
2024-03-07T01:30:09.044Z,101546.84
2024-03-07T01:32:37.155Z,101543.69
2024-03-07T01:35:07.822Z,101539.66
2024-03-07T01:37:35.693Z,101543.34
2024-03-07T01:40:04.366Z,101543.72
2024-03-07T01:42:32.227Z,101534.25
2024-03-07T01:45:00.450Z,101525.78
2024-03-07T01:47:29.870Z,101528.63
2024-03-07T01:49:58.361Z,101531.50
2024-03-07T01:52:26.711Z,101531.72
2024-03-07T01:54:55.772Z,101535.31
2024-03-07T01:57:23.976Z,101528.50
2024-03-07T01:59:52.433Z,101527.00
2024-03-07T02:02:20.663Z,101528.00
2024-03-07T02:04:50.529Z,101520.31
2024-03-07T02:07:18.416Z,101523.13
2024-03-07T02:09:46.317Z,101520.78
2024-03-07T02:12:14.455Z,101524.31
2024-03-07T02:14:43.475Z,101524.31
2024-03-07T02:17:11.877Z,101520.94
2024-03-07T02:19:39.690Z,101521.09
2024-03-07T02:22:09.022Z,101519.41
2024-03-07T02:24:36.840Z,101510.84
2024-03-07T02:27:04.748Z,101513.44
2024-03-07T02:29:32.784Z,101514.44
2024-03-07T02:32:00.662Z,101509.50
2024-03-07T02:34:28.574Z,101509.56
2024-03-07T02:36:56.787Z,101504.50
2024-03-07T02:39:26.595Z,101513.50
2024-03-07T02:41:54.535Z,101511.06
2024-03-07T02:44:22.491Z,101504.34
2024-03-07T02:46:50.458Z,101505.44
2024-03-07T02:49:18.356Z,101497.78
2024-03-07T02:51:46.572Z,101499.63
2024-03-07T02:54:14.408Z,101505.84
2024-03-07T02:56:45.077Z,101505.16
2024-03-07T02:59:13.122Z,101509.72
2024-03-07T03:01:41.045Z,101506.34
2024-03-07T03:04:09.022Z,101504.72
2024-03-07T03:06:36.838Z,101513.66
2024-03-07T03:09:06.339Z,101513.78
2024-03-07T03:11:34.424Z,101513.13
2024-03-07T03:14:04.925Z,101507.16
2024-03-07T03:16:43.824Z,101515.97
2024-03-07T03:19:16.172Z,101505.72
2024-03-07T03:21:44.735Z,101509.31
2024-03-07T03:24:12.782Z,101503.34
2024-03-07T03:26:43.697Z,101505.94
2024-03-07T03:29:15.490Z,101514.66
2024-03-07T03:31:43.386Z,101500.97
2024-03-07T03:34:11.763Z,101503.66
2024-03-07T03:36:39.752Z,101500.28
2024-03-07T03:39:08.853Z,101499.44
2024-03-07T03:41:37.160Z,101507.34
2024-03-07T03:44:07.361Z,101497.94
2024-03-07T03:46:36.713Z,101500.69
2024-03-07T03:49:06.378Z,101499.03
2024-03-07T03:51:34.736Z,101502.53
2024-03-07T03:54:02.764Z,101500.00
2024-03-07T03:56:30.782Z,101498.41
2024-03-07T03:58:59.006Z,101495.84
2024-03-07T04:01:27.385Z,101497.53
2024-03-07T04:03:56.678Z,101493.34
2024-03-07T04:06:25.056Z,101491.66
2024-03-07T04:08:55.444Z,101490.81
2024-03-07T04:11:23.464Z,101487.44
2024-03-07T04:13:51.455Z,101488.28
2024-03-07T04:16:20.043Z,101486.69
2024-03-07T04:18:48.021Z,101479.78
2024-03-07T04:21:17.289Z,101486.09
2024-03-07T04:23:47.794Z,101488.63
2024-03-07T04:26:16.244Z,101490.44
2024-03-07T04:28:44.777Z,101494.75
2024-03-07T04:31:12.657Z,101492.22
2024-03-07T04:33:41.063Z,101488.81
2024-03-07T04:36:10.039Z,101491.44
2024-03-07T04:38:39.347Z,101488.81
2024-03-07T04:41:07.241Z,101490.63
2024-03-07T04:43:35.084Z,101488.00
2024-03-07T04:46:02.983Z,101481.97
2024-03-07T04:48:30.822Z,101484.56
2024-03-07T04:50:59.549Z,101483.63
2024-03-07T04:53:27.495Z,101489.59
2024-03-07T04:55:57.090Z,101492.91
2024-03-07T04:58:25.218Z,101496.03
2024-03-07T05:00:53.210Z,101493.88
2024-03-07T05:03:21.018Z,101493.16
2024-03-07T05:05:49.137Z,101495.03
2024-03-07T05:08:17.499Z,101490.69
2024-03-07T05:10:45.842Z,101491.56
2024-03-07T05:13:15.753Z,101493.22
2024-03-07T05:15:43.683Z,101501.91
2024-03-07T05:18:13.791Z,101489.78
2024-03-07T05:20:41.934Z,101495.06
2024-03-07T05:23:12.295Z,101496.78
2024-03-07T05:25:41.377Z,101493.28
2024-03-07T05:28:10.141Z,101495.03
2024-03-07T05:30:39.799Z,101506.34
2024-03-07T05:33:08.317Z,101499.38
2024-03-07T05:35:36.340Z,101492.59
2024-03-07T05:38:05.957Z,101498.00
2024-03-07T05:40:34.679Z,101498.91
2024-03-07T05:43:02.513Z,101496.59
2024-03-07T05:45:30.451Z,101501.06
2024-03-07T05:47:59.807Z,101491.06
2024-03-07T05:50:28.084Z,101487.84
2024-03-07T05:52:55.923Z,101494.28
2024-03-07T05:55:24.655Z,101493.81
2024-03-07T05:57:53.394Z,101499.41
2024-03-07T06:00:29.073Z,101490.97
2024-03-07T06:02:59.688Z,101497.50
2024-03-07T06:05:28.069Z,101498.03
2024-03-07T06:07:57.662Z,101495.00
2024-03-07T06:10:26.422Z,101486.22
2024-03-07T06:13:05.400Z,101494.59
2024-03-07T06:15:39.333Z,101494.41
2024-03-07T06:18:09.414Z,101485.63
2024-03-07T06:20:37.508Z,101497.88
2024-03-07T06:23:06.481Z,101495.78
2024-03-07T06:25:38.799Z,101491.19
2024-03-07T06:28:12.200Z,101498.97
2024-03-07T06:30:42.872Z,101503.22
2024-03-07T06:33:12.376Z,101502.00
2024-03-07T06:35:41.018Z,101504.53
2024-03-07T06:38:10.247Z,101506.84
2024-03-07T06:40:38.284Z,101504.84
2024-03-07T06:43:07.708Z,101512.41
2024-03-07T06:45:36.899Z,101510.41
2024-03-07T06:48:08.439Z,101506.66
2024-03-07T06:50:39.475Z,101506.44
2024-03-07T06:53:09.627Z,101510.66
2024-03-07T06:55:38.313Z,101505.22
2024-03-07T06:58:06.944Z,101509.22
2024-03-07T07:00:38.114Z,101505.56
2024-03-07T07:03:07.408Z,101511.31
2024-03-07T07:05:36.299Z,101509.94
2024-03-07T07:08:08.008Z,101499.03
2024-03-07T07:10:37.390Z,101496.94
2024-03-07T07:13:06.021Z,101499.16
2024-03-07T07:15:35.994Z,101495.16
2024-03-07T07:18:05.351Z,101497.38
2024-03-07T07:20:35.616Z,101493.13
2024-03-07T07:23:05.684Z,101478.78
2024-03-07T07:25:34.112Z,101488.41
2024-03-07T07:28:05.292Z,101489.75
2024-03-07T07:30:33.353Z,101506.19
2024-03-07T07:33:01.359Z,101505.63
2024-03-07T07:35:29.434Z,101501.47
2024-03-07T07:37:57.743Z,101501.13
2024-03-07T07:40:28.800Z,101500.28
2024-03-07T07:42:57.753Z,101494.94
2024-03-07T07:45:26.818Z,101505.53
2024-03-07T07:47:55.944Z,101506.78
2024-03-07T07:50:26.456Z,101499.56
2024-03-07T07:52:56.326Z,101507.31
2024-03-07T07:55:25.591Z,101496.81
2024-03-07T07:57:56.085Z,101501.13
2024-03-07T08:00:26.077Z,101492.91
2024-03-07T08:02:56.238Z,101500.63
2024-03-07T08:05:25.813Z,101488.75
2024-03-07T08:07:55.687Z,101492.94
2024-03-07T08:10:25.588Z,101487.13
2024-03-07T08:12:54.867Z,101483.00
2024-03-07T08:15:22.938Z,101475.41
2024-03-07T08:17:52.715Z,101471.84
2024-03-07T08:20:23.669Z,101479.28
2024-03-07T08:22:53.780Z,101471.28
2024-03-07T08:25:24.338Z,101475.94
2024-03-07T08:27:56.048Z,101477.69
2024-03-07T08:30:25.102Z,101473.13
2024-03-07T08:32:54.330Z,101472.66
2024-03-07T08:35:23.461Z,101476.00
2024-03-07T08:37:54.596Z,101470.28
2024-03-07T08:40:28.196Z,101470.78
2024-03-07T08:42:59.156Z,101482.50
2024-03-07T08:45:28.231Z,101475.09
2024-03-07T08:47:58.177Z,101479.28
2024-03-07T08:50:28.074Z,101472.69
2024-03-07T08:52:56.333Z,101469.13
2024-03-07T08:55:26.620Z,101466.81
2024-03-07T08:57:55.263Z,101468.13
2024-03-07T09:00:26.511Z,101475.06
2024-03-07T09:02:59.149Z,101477.06
2024-03-07T09:05:28.676Z,101469.06
2024-03-07T09:07:57.515Z,101456.56
2024-03-07T09:10:27.292Z,101464.06
2024-03-07T09:12:56.225Z,101459.66
2024-03-07T09:15:25.662Z,101465.59
2024-03-07T09:17:54.914Z,101453.56
2024-03-07T09:20:24.856Z,101456.69
2024-03-07T09:22:55.937Z,101449.25
2024-03-07T09:25:25.478Z,101448.00
2024-03-07T09:27:54.290Z,101436.91
2024-03-07T09:30:27.058Z,101443.06
2024-03-07T09:32:57.453Z,101449.06
2024-03-07T09:35:25.775Z,101448.00
2024-03-07T09:37:55.040Z,101453.91
2024-03-07T09:40:26.280Z,101442.19
2024-03-07T09:42:56.195Z,101439.69
2024-03-07T09:45:30.419Z,101451.22
2024-03-07T09:48:00.187Z,101453.03
2024-03-07T09:50:31.241Z,101444.09
2024-03-07T09:53:01.754Z,101446.38
2024-03-07T09:55:30.456Z,101459.16
2024-03-07T09:58:01.175Z,101448.16
2024-03-07T10:00:31.846Z,101448.09
2024-03-07T10:03:07.705Z,101457.91
2024-03-07T10:05:35.939Z,101458.31
2024-03-07T10:08:04.510Z,101470.72
2024-03-07T10:10:32.766Z,101458.69
2024-03-07T10:13:02.280Z,101474.22
2024-03-07T10:15:30.954Z,101472.88
2024-03-07T10:17:59.976Z,101473.06
2024-03-07T10:20:29.659Z,101473.50
2024-03-07T10:22:58.493Z,101480.97
2024-03-07T10:25:30.022Z,101485.50
2024-03-07T10:28:00.005Z,101483.72
2024-03-07T10:30:28.835Z,101480.34
2024-03-07T10:32:59.839Z,101479.47
2024-03-07T10:35:32.610Z,101468.41
2024-03-07T10:38:02.800Z,101477.13
2024-03-07T10:40:32.122Z,101476.75
2024-03-07T10:43:04.728Z,101470.78
2024-03-07T10:45:36.198Z,101469.22
2024-03-07T10:48:10.186Z,101469.25
2024-03-07T10:50:50.261Z,101469.59
2024-03-07T10:53:28.055Z,101466.34
2024-03-07T10:56:14.790Z,101461.81
2024-03-07T10:58:54.697Z,101468.75
2024-03-07T11:01:25.194Z,101457.25
2024-03-07T11:03:57.204Z,101467.06
2024-03-07T11:06:27.605Z,101460.97
2024-03-07T11:08:56.674Z,101446.50
2024-03-07T11:11:26.037Z,101453.16
2024-03-07T11:13:55.567Z,101448.81
2024-03-07T11:16:25.100Z,101445.06
2024-03-07T11:19:28.921Z,101446.63
2024-03-07T11:21:58.808Z,101446.97
2024-03-07T11:24:33.487Z,101437.38
2024-03-07T11:27:06.840Z,101435.75
2024-03-07T11:29:45.366Z,101436.06
2024-03-07T11:32:14.937Z,101436.34
2024-03-07T11:34:43.911Z,101435.34
2024-03-07T11:37:19.716Z,101432.09
2024-03-07T11:39:49.016Z,101430.09
2024-03-07T11:42:27.971Z,101420.16
2024-03-07T11:44:57.638Z,101425.88
2024-03-07T11:47:26.694Z,101415.97
2024-03-07T11:49:54.830Z,101415.66
2024-03-07T11:52:24.196Z,101409.09
2024-03-07T11:54:53.943Z,101410.16
2024-03-07T11:57:27.664Z,101404.84
2024-03-07T11:59:54.817Z,101389.75
2024-03-07T12:02:23.927Z,101383.16
2024-03-07T12:04:52.764Z,101386.66
2024-03-07T12:07:23.744Z,101386.41
2024-03-07T12:09:56.954Z,101379.81
2024-03-07T12:12:25.753Z,101380.53
2024-03-07T12:14:54.028Z,101374.13
2024-03-07T12:17:23.964Z,101365.94
2024-03-07T12:19:53.357Z,101365.91
2024-03-07T12:22:25.778Z,101353.13
2024-03-07T12:25:04.474Z,101361.31
2024-03-07T12:27:33.162Z,101344.88
2024-03-07T12:30:03.316Z,101348.88
2024-03-07T12:32:32.691Z,101338.53
2024-03-07T12:35:00.897Z,101341.56
2024-03-07T12:37:31.376Z,101335.44
2024-03-07T12:40:02.470Z,101329.81
2024-03-07T12:42:33.470Z,101321.09
2024-03-07T12:45:01.637Z,101324.78
2024-03-07T12:47:29.815Z,101319.44
2024-03-07T12:49:59.554Z,101311.31
2024-03-07T12:52:28.516Z,101307.13
2024-03-07T12:54:56.737Z,101308.66
2024-03-07T12:57:25.514Z,101300.84
2024-03-07T12:59:56.394Z,101303.72
2024-03-07T13:02:28.959Z,101300.09
2024-03-07T13:04:57.611Z,101298.16
2024-03-07T13:07:25.410Z,101297.31
2024-03-07T13:09:53.237Z,101291.09
2024-03-07T13:12:21.181Z,101290.50
2024-03-07T13:14:49.130Z,101291.66
2024-03-07T13:17:19.591Z,101287.78
2024-03-07T13:19:50.886Z,101293.00
2024-03-07T13:22:18.789Z,101288.72
2024-03-07T13:24:46.941Z,101286.47
2024-03-07T13:27:20.387Z,101291.59
2024-03-07T13:29:50.727Z,101290.50
2024-03-07T13:32:20.072Z,101284.25
2024-03-07T13:34:49.014Z,101273.78
2024-03-07T13:37:19.331Z,101277.94
2024-03-07T13:39:48.207Z,101271.00
2024-03-07T13:42:17.799Z,101270.00
2024-03-07T13:44:46.381Z,101268.06
2024-03-07T13:47:14.293Z,101259.88
2024-03-07T13:49:44.123Z,101261.81
2024-03-07T13:52:19.532Z,101262.22
2024-03-07T13:54:47.561Z,101253.63
2024-03-07T13:57:31.099Z,101255.41
2024-03-07T14:00:15.744Z,101257.50
2024-03-07T14:03:28.570Z,101260.84
2024-03-07T14:06:07.816Z,101246.47
2024-03-07T14:09:09.145Z,101240.06
2024-03-07T14:12:16.532Z,101247.16
2024-03-07T14:15:27.184Z,101240.28
2024-03-07T14:18:24.199Z,101234.25
2024-03-07T14:21:12.270Z,101233.34
2024-03-07T14:24:02.089Z,101229.66
2024-03-07T14:27:20.599Z,101232.59
2024-03-07T14:29:57.318Z,101225.75
2024-03-07T14:32:26.698Z,101222.09
2024-03-07T14:35:02.806Z,101222.81
2024-03-07T14:37:39.288Z,101214.91
2024-03-07T14:40:12.235Z,101217.13
2024-03-07T14:42:46.268Z,101221.97
2024-03-07T14:45:21.613Z,101212.38
2024-03-07T14:47:52.090Z,101208.50
2024-03-07T14:50:21.635Z,101213.06
2024-03-07T14:52:53.275Z,101203.47
2024-03-07T14:55:21.504Z,101207.78
2024-03-07T14:57:49.584Z,101201.13
2024-03-07T15:00:29.593Z,101206.16
2024-03-07T15:03:03.724Z,101193.78
2024-03-07T15:05:31.908Z,101198.09
2024-03-07T15:08:01.448Z,101197.56
2024-03-07T15:10:34.189Z,101187.53
2024-03-07T15:13:03.903Z,101184.72
2024-03-07T15:15:33.028Z,101183.63
2024-03-07T15:18:01.573Z,101180.53
2024-03-07T15:20:31.162Z,101177.22
2024-03-07T15:23:01.804Z,101172.03
2024-03-07T15:25:29.931Z,101167.19
2024-03-07T15:27:59.219Z,101172.34
2024-03-07T15:30:33.097Z,101159.66
2024-03-07T15:33:01.870Z,101163.44
2024-03-07T15:35:31.895Z,101163.28
2024-03-07T15:38:01.246Z,101162.72
2024-03-07T15:40:29.700Z,101158.16
2024-03-07T15:42:59.188Z,101159.28
2024-03-07T15:45:27.534Z,101159.84
2024-03-07T15:47:57.469Z,101155.97
2024-03-07T15:50:30.206Z,101158.03
2024-03-07T15:53:00.094Z,101147.22
2024-03-07T15:55:30.331Z,101151.13
2024-03-07T15:58:05.493Z,101141.13
2024-03-07T16:00:35.396Z,101142.81
2024-03-07T16:03:06.067Z,101150.72
2024-03-07T16:05:35.340Z,101140.72
2024-03-07T16:08:07.636Z,101144.31
2024-03-07T16:10:38.432Z,101138.44
2024-03-07T16:13:08.333Z,101139.31
2024-03-07T16:15:41.592Z,101138.72
2024-03-07T16:18:13.240Z,101140.13
2024-03-07T16:20:41.637Z,101142.72
2024-03-07T16:23:10.061Z,101142.81
2024-03-07T16:25:39.922Z,101137.53
2024-03-07T16:28:09.167Z,101140.16
2024-03-07T16:30:38.307Z,101131.78
2024-03-07T16:33:07.938Z,101130.75
2024-03-07T16:35:36.007Z,101134.72
2024-03-07T16:38:04.567Z,101132.06
2024-03-07T16:40:32.552Z,101138.09
2024-03-07T16:43:02.625Z,101140.91
2024-03-07T16:45:32.829Z,101130.59
2024-03-07T16:48:04.043Z,101142.16
2024-03-07T16:50:33.809Z,101138.88
2024-03-07T16:53:06.454Z,101132.94
2024-03-07T16:55:36.229Z,101139.81
2024-03-07T16:58:09.709Z,101139.72
2024-03-07T17:00:41.279Z,101148.13
2024-03-07T17:03:13.214Z,101144.66
2024-03-07T17:05:45.438Z,101147.22
2024-03-07T17:08:17.315Z,101143.66
2024-03-07T17:10:47.157Z,101144.25
2024-03-07T17:13:17.641Z,101138.03
2024-03-07T17:15:46.661Z,101142.19
2024-03-07T17:18:15.376Z,101144.75
2024-03-07T17:20:45.079Z,101148.66
2024-03-07T17:23:14.578Z,101150.09
2024-03-07T17:25:42.436Z,101142.69
2024-03-07T17:28:10.305Z,101144.97
2024-03-07T17:30:40.134Z,101146.41
2024-03-07T17:33:08.929Z,101150.34
2024-03-07T17:35:41.784Z,101144.84
2024-03-07T17:38:11.733Z,101149.72
2024-03-07T17:40:41.372Z,101149.47
2024-03-07T17:43:10.882Z,101159.59
2024-03-07T17:45:41.088Z,101156.69
2024-03-07T17:48:11.592Z,101154.66
2024-03-07T17:50:39.935Z,101158.69
2024-03-07T17:53:11.548Z,101162.72
2024-03-07T17:55:45.217Z,101155.53
2024-03-07T17:58:15.276Z,101164.88
2024-03-07T18:00:47.246Z,101164.50
2024-03-07T18:03:17.739Z,101161.41
2024-03-07T18:05:52.647Z,101155.66
2024-03-07T18:08:34.550Z,101162.91
2024-03-07T18:11:14.404Z,101160.47
2024-03-07T18:13:43.524Z,101155.59
2024-03-07T18:16:15.838Z,101159.16
2024-03-07T18:18:47.215Z,101157.56
2024-03-07T18:21:16.524Z,101155.09
2024-03-07T18:23:46.458Z,101158.75
2024-03-07T18:26:15.399Z,101158.03
2024-03-07T18:28:44.521Z,101160.97
2024-03-07T18:31:20.886Z,101161.31
2024-03-07T18:33:51.873Z,101165.09
2024-03-07T18:36:22.845Z,101162.69
2024-03-07T18:38:52.396Z,101157.88
2024-03-07T18:41:21.452Z,101158.13
2024-03-07T18:43:49.469Z,101156.53
2024-03-07T18:46:18.766Z,101154.97
2024-03-07T18:48:47.280Z,101158.75
2024-03-07T18:51:23.179Z,101157.41
2024-03-07T18:53:53.959Z,101157.72
2024-03-07T18:56:24.437Z,101154.59
2024-03-07T18:58:53.275Z,101142.78
2024-03-07T19:01:29.991Z,101150.09
2024-03-07T19:03:57.879Z,101150.63
2024-03-07T19:06:27.718Z,101156.94
2024-03-07T19:08:55.668Z,101159.13
2024-03-07T19:11:23.632Z,101154.19
2024-03-07T19:13:54.227Z,101150.22
2024-03-07T19:16:25.072Z,101146.16
2024-03-07T19:18:53.276Z,101150.00
2024-03-07T19:21:21.903Z,101146.88
2024-03-07T19:23:50.053Z,101150.75
2024-03-07T19:26:20.912Z,101146.56
2024-03-07T19:28:50.369Z,101138.94
2024-03-07T19:31:18.795Z,101136.50
2024-03-07T19:33:48.118Z,101143.63
2024-03-07T19:36:16.708Z,101133.25
2024-03-07T19:38:47.611Z,101140.38
2024-03-07T19:41:16.145Z,101135.44
2024-03-07T19:43:54.637Z,101136.28
2024-03-07T19:46:24.168Z,101144.13
2024-03-07T19:48:54.317Z,101142.56
2024-03-07T19:51:25.987Z,101142.56
2024-03-07T19:53:54.931Z,101145.38
2024-03-07T19:56:23.369Z,101142.75
2024-03-07T19:58:51.323Z,101150.50
2024-03-07T20:01:22.190Z,101147.06
2024-03-07T20:03:50.244Z,101144.34
2024-03-07T20:06:19.704Z,101147.06
2024-03-07T20:08:47.677Z,101148.94
2024-03-07T20:11:16.512Z,101146.53
2024-03-07T20:13:44.395Z,101144.22
2024-03-07T20:16:14.458Z,101143.88
2024-03-07T20:18:45.233Z,101149.31
2024-03-07T20:21:13.291Z,101154.13
2024-03-07T20:23:42.027Z,101142.50
2024-03-07T20:26:10.182Z,101146.31
2024-03-07T20:28:38.494Z,101140.78
2024-03-07T20:31:08.947Z,101147.34
2024-03-07T20:33:37.662Z,101147.00
2024-03-07T20:36:09.766Z,101150.09
2024-03-07T20:38:39.227Z,101154.88
2024-03-07T20:41:07.852Z,101146.47
2024-03-07T20:43:36.250Z,101151.97
2024-03-07T20:46:06.961Z,101155.91
2024-03-07T20:48:36.245Z,101143.34
2024-03-07T20:51:07.545Z,101143.59
2024-03-07T20:53:37.132Z,101143.91
2024-03-07T20:56:08.099Z,101139.91
2024-03-07T20:58:37.238Z,101139.47
2024-03-07T21:01:05.740Z,101134.41
2024-03-07T21:03:38.398Z,101139.94
2024-03-07T21:06:07.181Z,101134.13
2024-03-07T21:08:35.129Z,101129.22
2024-03-07T21:11:05.820Z,101123.31
2024-03-07T21:13:33.660Z,101122.69
2024-03-07T21:16:01.648Z,101118.50
2024-03-07T21:18:33.041Z,101124.75
2024-03-07T21:21:02.140Z,101121.56
2024-03-07T21:23:32.893Z,101122.59
2024-03-07T21:26:00.819Z,101126.22
2024-03-07T21:28:31.137Z,101124.75
2024-03-07T21:31:00.453Z,101116.34
2024-03-07T21:33:29.007Z,101111.34
2024-03-07T21:35:56.912Z,101115.03
2024-03-07T21:38:25.211Z,101117.09
2024-03-07T21:40:53.391Z,101116.41
2024-03-07T21:43:21.262Z,101110.66
2024-03-07T21:45:51.291Z,101105.59
2024-03-07T21:48:22.926Z,101107.56
2024-03-07T21:50:50.944Z,101113.78
2024-03-07T21:53:18.729Z,101107.09
2024-03-07T21:55:46.661Z,101104.66
2024-03-07T21:58:14.899Z,101099.53
2024-03-07T22:00:42.812Z,101105.03
2024-03-07T22:03:13.369Z,101103.41
2024-03-07T22:05:43.457Z,101104.53
2024-03-07T22:08:11.391Z,101102.09
2024-03-07T22:10:38.982Z,101101.47
2024-03-07T22:13:07.386Z,101108.50
2024-03-07T22:15:35.606Z,101097.44
2024-03-07T22:18:04.863Z,101093.25
2024-03-07T22:20:34.498Z,101097.78
2024-03-07T22:23:05.769Z,101099.66
2024-03-07T22:25:34.466Z,101090.16
2024-03-07T22:28:04.926Z,101092.00
2024-03-07T22:30:33.312Z,101086.03
2024-03-07T22:33:01.405Z,101084.63
2024-03-07T22:35:29.881Z,101084.63
2024-03-07T22:37:59.119Z,101088.34
2024-03-07T22:40:28.479Z,101084.16
2024-03-07T22:42:57.144Z,101082.56
2024-03-07T22:45:25.096Z,101075.84
2024-03-07T22:47:54.508Z,101081.06
2024-03-07T22:50:29.044Z,101079.47
2024-03-07T22:53:02.412Z,101070.09
2024-03-07T22:55:31.580Z,101068.31
2024-03-07T22:57:59.685Z,101064.97
2024-03-07T23:00:29.456Z,101063.28
2024-03-07T23:03:00.221Z,101052.09
2024-03-07T23:05:30.229Z,101053.94
2024-03-07T23:08:01.766Z,101053.22
2024-03-07T23:10:30.151Z,101055.06
2024-03-07T23:13:00.293Z,101060.34
2024-03-07T23:15:29.104Z,101057.94
2024-03-07T23:17:58.459Z,101051.13
2024-03-07T23:20:28.378Z,101052.06
2024-03-07T23:22:58.450Z,101053.88
2024-03-07T23:25:28.701Z,101048.03
2024-03-07T23:27:57.983Z,101050.72
2024-03-07T23:30:28.018Z,101054.31
2024-03-07T23:32:57.024Z,101048.53
2024-03-07T23:35:25.584Z,101045.94
2024-03-07T23:37:54.090Z,101054.50
2024-03-07T23:40:22.271Z,101052.81
2024-03-07T23:42:52.768Z,101054.75
2024-03-07T23:45:22.589Z,101053.25
2024-03-07T23:47:51.048Z,101055.84
2024-03-07T23:50:20.590Z,101051.66
2024-03-07T23:52:48.391Z,101044.88
2024-03-07T23:55:18.140Z,101046.63
2024-03-07T23:57:47.179Z,101043.19
